メインページ
METAR-TAF:

METAR-TAF

空港 :

ワシントン州, バージニア州, アメリカ合衆国

ワシントン・ダレス国際空港

緯度: 38-56-05N, 経度: 077-26-51W, 海抜: 95m

現時点の気象観測

当レポートは28分前の22:52(UTC)に作成
東/北東の風 3kt
気温 21°C
湿度 73%
気圧 1012 hPa
視程: 16.1km
高度4200ftの千切れ雲あり
高度4900ftの曇り

METAR: KIAD 272252Z 07003KT 10SM BKN042 OVC049 21/16 A2988 RMK AO2 SLP117 T02060161

時間: 19:20 (23:20 UTC)

予報

当レポートは2時間24分前の20:56(UTC)に作成
予報は27日の 21時(UTC)から 28日の 24時(UTC)まで有効
北/北東の風 3kt
視程: 10km
高度5000ftの曇り
28日の 0800時(UTC)から
変向風 3kt
視程: 10km
高度2500ftの千切れ雲あり
28日の 1000時(UTC)から
変向風 3kt
視程: 4.8km
高度1000ftの千切れ雲あり
28日の 1100時(UTC)から
変向風 3kt
視程: 4.8km
高度300ftの千切れ雲あり
28日の 1300時(UTC)から
東/北東の風 4kt
視程: 10km
高度800ftの千切れ雲あり
28日の 1400時(UTC)から
の風 4kt
視程: 10km
高度1000ftの千切れ雲あり
28日の 2100時(UTC)から
南東の風 8kt
視程: 10km
高度5000ftの曇り

TAF: KIAD 272056Z 2721/2824 02003KT P6SM OVC050 FM280800 VRB03KT P6SM BKN025 FM281000 VRB03KT 3SM BR BKN010 FM281100 VRB03KT 3SM BR BKN003 FM281300 07004KT P6SM BKN008 FM281400 10004KT P6SM BKN010 FM282100 14008KT P6SM OVC050

4,000以上の空港の気象観測と天気予報(METAR報とTAF報)

利用可能な観測所は地図上に黄色い丸と赤い丸で示す。

丸の上にカーソルを重ねると観測所名を参照できる。

次にクリックすると気象観測と天気予報を参照できる。

マップの切り替え:黒色「×」印の緑ボタンをクリックして拡大、「-」印の緑ボタンをクリックして縮小、緑色の三角印をクリックして隣りの地図に切り替え


METAR-TAF: